createdAt,value
2018-08-07T00:04:13.075Z,44.30
2018-08-07T00:07:16.056Z,44.50
2018-08-07T00:10:20.394Z,45.30
2018-08-07T00:13:23.367Z,45.20
2018-08-07T00:16:26.387Z,45.00
2018-08-07T00:19:29.499Z,45.20
2018-08-07T00:22:32.655Z,44.90
2018-08-07T00:25:35.757Z,44.90
2018-08-07T00:28:50.982Z,45.30
2018-08-07T00:32:15.053Z,45.50
2018-08-07T00:35:19.259Z,46.00
2018-08-07T00:38:22.292Z,45.80
2018-08-07T00:41:25.250Z,45.80
2018-08-07T00:44:28.293Z,46.80
2018-08-07T00:47:31.439Z,46.50
2018-08-07T00:50:34.577Z,46.60
2018-08-07T00:53:37.743Z,45.80
2018-08-07T00:56:40.863Z,45.90
2018-08-07T00:59:43.806Z,45.90
2018-08-07T01:02:46.776Z,46.60
2018-08-07T01:05:49.763Z,46.40
2018-08-07T01:08:52.716Z,46.80
2018-08-07T01:11:55.706Z,47.70
2018-08-07T01:14:58.667Z,47.30
2018-08-07T01:18:01.959Z,46.90
2018-08-07T01:21:05.176Z,46.90
2018-08-07T01:24:08.299Z,46.90
2018-08-07T01:27:11.300Z,46.70
2018-08-07T01:30:19.666Z,46.80
2018-08-07T01:33:25.631Z,47.00
2018-08-07T01:36:28.584Z,47.60
2018-08-07T01:39:31.668Z,47.30
2018-08-07T01:42:34.741Z,47.70
2018-08-07T01:45:37.785Z,47.60
2018-08-07T01:48:40.934Z,47.40
2018-08-07T01:51:43.936Z,47.40
2018-08-07T01:54:46.881Z,47.50
2018-08-07T01:57:49.875Z,47.50
2018-08-07T02:00:52.778Z,47.20
2018-08-07T02:03:55.693Z,47.60
2018-08-07T02:06:58.674Z,47.50
2018-08-07T02:10:01.990Z,47.40
2018-08-07T02:13:05.488Z,46.60
2018-08-07T02:16:08.470Z,46.60
2018-08-07T02:19:11.549Z,47.30
2018-08-07T02:22:14.515Z,46.90
2018-08-07T02:25:18.671Z,47.30
2018-08-07T02:28:21.596Z,47.20
2018-08-07T02:31:24.562Z,48.20
2018-08-07T02:34:27.464Z,49.00
2018-08-07T02:37:30.413Z,45.80
2018-08-07T02:40:33.412Z,46.70
2018-08-07T02:43:36.485Z,48.20
2018-08-07T02:46:39.769Z,48.00
2018-08-07T02:49:42.834Z,48.10
2018-08-07T02:52:45.952Z,48.20
2018-08-07T02:55:48.936Z,47.60
2018-08-07T02:58:51.925Z,47.00
2018-08-07T03:01:54.935Z,48.30
2018-08-07T03:04:57.874Z,48.30
2018-08-07T03:08:00.824Z,48.50
2018-08-07T03:11:04.109Z,48.30
2018-08-07T03:14:07.456Z,48.10
2018-08-07T03:17:10.493Z,48.70
2018-08-07T03:20:13.517Z,48.90
2018-08-07T03:23:16.527Z,49.20
2018-08-07T03:26:19.490Z,48.40
2018-08-07T03:29:22.410Z,47.80
2018-08-07T03:32:25.353Z,48.60
2018-08-07T03:35:28.287Z,48.40
2018-08-07T03:38:31.241Z,47.80
2018-08-07T03:41:34.200Z,48.60
2018-08-07T03:44:37.209Z,48.10
2018-08-07T03:47:40.365Z,48.60
2018-08-07T03:50:43.376Z,48.80
2018-08-07T03:53:46.360Z,49.50
2018-08-07T03:56:49.313Z,48.80
2018-08-07T03:59:52.256Z,49.00
2018-08-07T04:02:55.197Z,48.80
2018-08-07T04:05:58.136Z,49.40
2018-08-07T04:09:01.118Z,49.20
2018-08-07T04:12:04.269Z,49.30
2018-08-07T04:15:10.193Z,49.40
2018-08-07T04:18:13.176Z,49.50
2018-08-07T04:21:16.177Z,50.00
2018-08-07T04:24:19.107Z,50.10
2018-08-07T04:27:22.062Z,49.70
2018-08-07T04:30:25.046Z,50.30
2018-08-07T04:33:27.980Z,51.00
2018-08-07T04:36:30.969Z,51.30
2018-08-07T04:39:34.043Z,51.10
2018-08-07T04:42:37.997Z,50.50
2018-08-07T04:45:41.125Z,50.40
2018-08-07T04:48:44.124Z,50.80
2018-08-07T04:51:47.124Z,50.60
2018-08-07T04:54:50.085Z,51.50
2018-08-07T04:57:53.093Z,51.00
2018-08-07T05:00:57.525Z,51.20
2018-08-07T05:04:00.475Z,50.80
2018-08-07T05:07:03.573Z,51.40
2018-08-07T05:10:11.592Z,51.60
2018-08-07T05:13:14.535Z,51.00
2018-08-07T05:16:17.490Z,51.50
2018-08-07T05:19:20.420Z,51.70
2018-08-07T05:22:23.344Z,51.50
2018-08-07T05:25:26.228Z,51.80
2018-08-07T05:28:29.228Z,53.20
2018-08-07T05:31:32.216Z,53.20
2018-08-07T05:34:35.265Z,53.20
2018-08-07T05:37:38.511Z,52.70
2018-08-07T05:40:41.584Z,52.40
2018-08-07T05:43:44.582Z,53.20
2018-08-07T05:46:47.602Z,53.60
2018-08-07T05:49:50.629Z,53.20
2018-08-07T05:52:53.562Z,52.90
2018-08-07T05:55:56.477Z,54.10
2018-08-07T05:58:59.503Z,54.10
2018-08-07T06:02:02.883Z,54.20
2018-08-07T06:05:06.818Z,54.50
2018-08-07T06:08:09.920Z,54.60
2018-08-07T06:11:12.967Z,54.90
2018-08-07T06:14:15.966Z,55.00
2018-08-07T06:17:19.026Z,55.00
2018-08-07T06:20:22.029Z,54.70
2018-08-07T06:23:24.993Z,55.10
2018-08-07T06:26:27.955Z,55.30
2018-08-07T06:29:31.080Z,55.40
2018-08-07T06:32:40.855Z,55.70
2018-08-07T06:35:43.914Z,55.70
2018-08-07T06:38:46.942Z,55.70
2018-08-07T06:41:49.922Z,55.80
2018-08-07T06:44:52.840Z,56.00
2018-08-07T06:50:58.720Z,56.10
2018-08-07T06:54:01.754Z,55.60
2018-08-07T06:57:05.357Z,55.70
2018-08-07T07:00:13.141Z,55.90
2018-08-07T07:03:16.090Z,55.80
2018-08-07T07:06:18.997Z,55.60
2018-08-07T07:12:25.788Z,54.60
2018-08-07T07:15:29.700Z,54.10
2018-08-07T07:18:33.284Z,53.50
2018-08-07T07:21:36.353Z,52.50
2018-08-07T07:24:39.401Z,51.90
2018-08-07T07:27:42.514Z,51.20
2018-08-07T07:30:45.664Z,50.70
2018-08-07T07:33:48.737Z,50.30
2018-08-07T07:36:54.865Z,50.00
2018-08-07T07:39:58.145Z,49.70
2018-08-07T07:43:01.662Z,50.00
2018-08-07T07:46:05.192Z,50.20
2018-08-07T07:49:08.427Z,51.10
2018-08-07T07:52:11.512Z,51.20
2018-08-07T07:55:16.262Z,50.30
2018-08-07T07:58:19.333Z,51.00
2018-08-07T08:01:22.474Z,52.30
2018-08-07T08:04:25.562Z,48.80
2018-08-07T08:07:28.616Z,51.70
2018-08-07T08:10:31.689Z,53.10
2018-08-07T08:13:34.949Z,52.80
2018-08-07T08:16:38.354Z,50.60
2018-08-07T08:19:41.470Z,49.50
2018-08-07T08:22:44.577Z,51.60
2018-08-07T08:25:47.653Z,49.50
2018-08-07T08:28:51.104Z,50.60
2018-08-07T08:31:54.088Z,51.10
2018-08-07T08:34:57.314Z,50.10
2018-08-07T08:38:00.347Z,49.70
2018-08-07T08:41:03.467Z,50.70
2018-08-07T08:44:07.116Z,44.90
2018-08-07T08:47:10.226Z,43.60
2018-08-07T08:50:15.459Z,43.10
2018-08-07T08:53:18.533Z,43.60
2018-08-07T08:57:46.137Z,41.80
2018-08-07T09:00:49.189Z,46.50
2018-08-07T09:03:52.661Z,39.70
2018-08-07T09:06:55.645Z,38.20
2018-08-07T09:09:58.810Z,35.80
2018-08-07T09:13:02.265Z,38.00
2018-08-07T09:16:05.489Z,40.30
2018-08-07T09:19:08.669Z,37.00
2018-08-07T09:22:11.767Z,37.70
2018-08-07T09:25:14.982Z,37.70
2018-08-07T09:28:17.921Z,33.50
2018-08-07T09:31:20.977Z,34.70
2018-08-07T09:34:23.988Z,35.00
2018-08-07T09:37:26.957Z,33.50
2018-08-07T09:40:30.754Z,35.60
2018-08-07T09:43:33.917Z,33.90
2018-08-07T09:46:37.343Z,32.30
2018-08-07T09:49:40.657Z,34.90
2018-08-07T09:52:44.167Z,33.30
2018-08-07T09:55:47.180Z,33.40
2018-08-07T09:58:50.194Z,37.30
2018-08-07T10:01:59.677Z,33.90
2018-08-07T10:05:02.855Z,32.60
2018-08-07T10:08:05.981Z,33.60
2018-08-07T10:11:09.138Z,32.20
2018-08-07T10:14:12.343Z,31.20
2018-08-07T10:17:15.449Z,32.10
2018-08-07T10:20:18.694Z,31.80
2018-08-07T10:23:21.898Z,35.10
2018-08-07T10:26:25.031Z,30.70
2018-08-07T10:29:28.141Z,30.80
2018-08-07T10:32:31.351Z,30.20
2018-08-07T10:35:34.542Z,30.70
2018-08-07T10:38:37.722Z,29.70
2018-08-07T10:41:41.514Z,32.50
2018-08-07T10:44:44.619Z,29.40
2018-08-07T10:47:47.828Z,30.80
2018-08-07T10:50:50.923Z,30.20
2018-08-07T10:53:54.126Z,30.00
2018-08-07T10:56:57.330Z,30.70
2018-08-07T11:00:00.477Z,30.20
2018-08-07T11:03:03.755Z,31.80
2018-08-07T11:06:06.880Z,30.10
2018-08-07T11:09:13.363Z,32.40
2018-08-07T11:12:16.548Z,33.10
2018-08-07T11:15:23.559Z,28.90
2018-08-07T11:18:26.650Z,28.90
2018-08-07T11:21:29.841Z,28.60
2018-08-07T11:24:33.046Z,29.50
2018-08-07T11:27:36.160Z,28.70
2018-08-07T11:30:39.299Z,29.30
2018-08-07T11:33:42.488Z,30.00
2018-08-07T11:36:45.626Z,29.40
2018-08-07T11:39:48.827Z,30.00
2018-08-07T11:42:52.691Z,28.60
2018-08-07T11:45:55.850Z,31.30
2018-08-07T11:48:59.064Z,29.90
2018-08-07T11:52:02.227Z,28.10
2018-08-07T11:55:05.802Z,28.60
2018-08-07T11:58:08.967Z,28.00
2018-08-07T12:01:12.186Z,29.80
2018-08-07T12:04:15.374Z,28.10
2018-08-07T12:07:18.521Z,27.60
2018-08-07T12:10:21.726Z,28.30
2018-08-07T12:13:24.909Z,26.70
2018-08-07T12:16:28.090Z,26.50
2018-08-07T12:19:31.328Z,26.70
2018-08-07T12:22:34.609Z,26.40
2018-08-07T12:25:37.995Z,27.10
2018-08-07T12:28:41.180Z,26.40
2018-08-07T12:31:44.472Z,26.40
2018-08-07T12:34:47.746Z,27.50
2018-08-07T12:37:51.026Z,26.50
2018-08-07T12:40:54.241Z,27.50
2018-08-07T12:43:57.640Z,26.70
2018-08-07T12:47:01.132Z,26.90
2018-08-07T12:50:07.179Z,25.90
2018-08-07T12:53:11.787Z,27.00
2018-08-07T12:56:15.814Z,25.40
2018-08-07T12:59:19.413Z,26.40
2018-08-07T13:02:25.486Z,26.20
2018-08-07T13:05:29.754Z,26.90
2018-08-07T13:08:33.303Z,26.80
2018-08-07T13:11:37.001Z,26.30
2018-08-07T13:14:40.481Z,29.20
2018-08-07T13:17:44.526Z,27.30
2018-08-07T13:20:48.061Z,26.60
2018-08-07T13:23:51.876Z,27.40
2018-08-07T13:26:55.069Z,26.80
2018-08-07T13:29:58.594Z,26.40
2018-08-07T13:33:02.048Z,27.10
2018-08-07T13:36:05.799Z,27.20
2018-08-07T13:39:10.349Z,26.30
2018-08-07T13:42:15.434Z,27.90
2018-08-07T13:45:23.602Z,26.00
2018-08-07T13:48:27.884Z,27.50
2018-08-07T13:51:31.278Z,26.10
2018-08-07T13:54:34.726Z,27.10
2018-08-07T13:57:38.501Z,27.50
2018-08-07T14:00:42.758Z,28.90
2018-08-07T14:06:49.904Z,28.30
2018-08-07T14:09:53.309Z,27.20
2018-08-07T14:12:56.754Z,28.30
2018-08-07T14:16:00.227Z,27.90
2018-08-07T14:19:03.732Z,27.20
2018-08-07T14:22:07.935Z,27.30
2018-08-07T14:25:22.109Z,26.10
2018-08-07T14:28:25.835Z,26.00
2018-08-07T14:31:29.353Z,26.70
2018-08-07T14:34:32.633Z,26.00
2018-08-07T14:37:36.017Z,25.60
2018-08-07T14:40:39.565Z,25.60
2018-08-07T14:43:42.781Z,26.40
2018-08-07T14:46:46.072Z,26.20
2018-08-07T14:49:49.264Z,26.40
2018-08-07T14:52:52.689Z,25.90
2018-08-07T14:55:55.927Z,24.30
2018-08-07T14:58:59.151Z,24.10
2018-08-07T15:02:02.402Z,25.00
2018-08-07T15:05:05.746Z,24.50
2018-08-07T15:08:09.109Z,24.70
2018-08-07T15:11:12.331Z,24.80
2018-08-07T15:14:15.530Z,25.00
2018-08-07T15:17:18.736Z,23.00
2018-08-07T15:20:24.875Z,24.10
2018-08-07T15:23:28.046Z,23.00
2018-08-07T15:26:31.184Z,24.20
2018-08-07T15:29:34.422Z,23.70
2018-08-07T15:32:38.158Z,23.80
2018-08-07T15:35:41.272Z,24.20
2018-08-07T15:38:44.454Z,24.00
2018-08-07T15:41:47.632Z,23.40
2018-08-07T15:44:50.819Z,23.50
2018-08-07T15:47:54.098Z,23.70
2018-08-07T15:50:57.246Z,24.10
2018-08-07T15:54:00.469Z,24.40
2018-08-07T16:00:10.234Z,23.70
2018-08-07T16:03:13.489Z,23.70
2018-08-07T16:06:16.727Z,24.00
2018-08-07T16:09:20.082Z,24.50
2018-08-07T16:12:23.179Z,24.90
2018-08-07T16:15:26.424Z,25.50
2018-08-07T16:18:29.585Z,25.40
2018-08-07T16:21:32.781Z,24.90
2018-08-07T16:24:35.967Z,25.60
2018-08-07T16:27:40.706Z,26.00
2018-08-07T16:30:43.930Z,25.90
2018-08-07T16:33:47.139Z,26.70
2018-08-07T16:36:50.396Z,26.60
2018-08-07T16:39:53.517Z,25.70
2018-08-07T16:45:59.731Z,25.10
2018-08-07T16:49:02.969Z,25.20
2018-08-07T16:52:06.132Z,25.50
2018-08-07T16:55:10.209Z,25.70
2018-08-07T16:58:13.342Z,25.40
2018-08-07T17:01:16.513Z,26.00
2018-08-07T17:04:19.918Z,26.00
2018-08-07T17:07:23.365Z,26.40
2018-08-07T17:10:28.345Z,26.50
2018-08-07T17:13:31.863Z,27.40
2018-08-07T17:16:35.565Z,26.60
2018-08-07T17:19:38.881Z,26.40
2018-08-07T17:22:43.110Z,27.40
2018-08-07T17:25:46.659Z,26.50
2018-08-07T17:28:50.812Z,26.20
2018-08-07T17:31:55.103Z,26.80
2018-08-07T17:34:58.898Z,27.60
2018-08-07T17:38:02.182Z,27.70
2018-08-07T17:41:05.657Z,27.00
2018-08-07T17:44:09.295Z,28.30
2018-08-07T17:47:13.120Z,27.90
2018-08-07T17:50:20.041Z,29.10
2018-08-07T17:53:23.510Z,27.80
2018-08-07T17:56:27.333Z,27.60
2018-08-07T17:59:31.065Z,27.70
2018-08-07T18:02:34.864Z,29.20
2018-08-07T18:05:38.754Z,29.00
2018-08-07T18:08:42.598Z,29.80
2018-08-07T18:11:46.262Z,31.80
2018-08-07T18:14:49.751Z,32.20
2018-08-07T18:17:53.378Z,33.60
2018-08-07T18:20:57.324Z,34.90
2018-08-07T18:24:00.965Z,34.60
2018-08-07T18:27:04.544Z,35.60
2018-08-07T18:30:11.432Z,37.50
2018-08-07T18:33:15.134Z,37.40
2018-08-07T18:36:18.928Z,37.00
2018-08-07T18:39:22.522Z,36.70
2018-08-07T18:42:25.910Z,37.60
2018-08-07T18:45:29.544Z,39.00
2018-08-07T18:48:33.397Z,37.40
2018-08-07T18:51:37.252Z,38.70
2018-08-07T18:55:12.792Z,38.10
2018-08-07T18:58:16.223Z,39.80
2018-08-07T19:01:19.327Z,39.80
2018-08-07T19:04:22.473Z,38.70
2018-08-07T19:07:25.856Z,38.60
2018-08-07T19:10:29.579Z,38.60
2018-08-07T19:13:32.885Z,38.80
2018-08-07T19:16:36.445Z,39.30
2018-08-07T19:19:39.562Z,39.00
2018-08-07T19:22:43.374Z,39.20
2018-08-07T19:25:47.525Z,39.60
2018-08-07T19:28:50.826Z,39.30
2018-08-07T19:31:54.685Z,39.60
2018-08-07T19:34:58.178Z,40.20
2018-08-07T19:38:01.544Z,40.30
2018-08-07T19:41:06.571Z,40.70
2018-08-07T19:44:10.495Z,41.10
2018-08-07T19:47:14.200Z,41.60
2018-08-07T19:50:19.732Z,41.20
2018-08-07T19:53:23.432Z,40.40
2018-08-07T19:56:26.564Z,39.30
2018-08-07T19:59:30.148Z,39.40
2018-08-07T20:02:33.830Z,38.70
2018-08-07T20:05:39.961Z,39.10
2018-08-07T20:08:43.482Z,39.10
2018-08-07T20:11:46.840Z,39.90
2018-08-07T20:14:49.888Z,40.00
2018-08-07T20:17:54.044Z,39.50
2018-08-07T20:20:57.118Z,39.40
2018-08-07T20:24:00.259Z,39.90
2018-08-07T20:27:03.814Z,40.00
2018-08-07T20:30:14.612Z,39.20
2018-08-07T20:33:17.576Z,38.80
2018-08-07T20:36:21.163Z,39.00
2018-08-07T20:39:24.240Z,38.50
2018-08-07T20:42:27.329Z,39.40
2018-08-07T20:45:30.634Z,37.40
2018-08-07T20:48:35.880Z,37.30
2018-08-07T20:51:39.118Z,38.20
2018-08-07T20:54:42.328Z,36.60
2018-08-07T20:57:45.509Z,38.40
2018-08-07T21:00:48.766Z,38.10
2018-08-07T21:03:51.975Z,38.40
2018-08-07T21:06:55.139Z,38.70
2018-08-07T21:09:58.229Z,37.30
2018-08-07T21:13:01.403Z,38.20
2018-08-07T21:16:04.588Z,38.30
2018-08-07T21:19:07.861Z,38.80
2018-08-07T21:22:11.045Z,38.90
2018-08-07T21:25:16.781Z,39.10
2018-08-07T21:28:26.704Z,38.40
2018-08-07T21:31:29.922Z,38.90
2018-08-07T21:34:33.024Z,39.70
2018-08-07T21:37:36.115Z,39.80
2018-08-07T21:40:39.214Z,40.00
2018-08-07T21:43:42.296Z,39.70
2018-08-07T21:46:45.397Z,40.00
2018-08-07T21:49:55.237Z,40.10
2018-08-07T21:52:58.349Z,39.90
2018-08-07T21:56:01.456Z,40.00
2018-08-07T21:59:05.066Z,40.40
2018-08-07T22:02:08.186Z,39.10
2018-08-07T22:05:11.429Z,38.50
2018-08-07T22:08:15.694Z,39.00
2018-08-07T22:11:18.850Z,39.90
2018-08-07T22:14:21.903Z,39.10
2018-08-07T22:17:24.987Z,39.80
2018-08-07T22:20:28.110Z,39.50
2018-08-07T22:23:31.199Z,40.20
2018-08-07T22:26:34.309Z,39.10
2018-08-07T22:29:37.400Z,39.40
2018-08-07T22:32:40.530Z,39.30
2018-08-07T22:35:43.710Z,39.80
2018-08-07T22:38:46.849Z,39.40
2018-08-07T22:41:49.931Z,40.10
2018-08-07T22:44:53.031Z,40.70
2018-08-07T22:47:56.113Z,40.40
2018-08-07T22:50:59.148Z,41.20
2018-08-07T22:54:02.314Z,40.30
2018-08-07T22:57:09.645Z,40.80
2018-08-07T23:00:16.929Z,40.80
2018-08-07T23:03:19.926Z,40.60
2018-08-07T23:06:23.082Z,41.30
2018-08-07T23:09:26.146Z,42.60
2018-08-07T23:12:29.225Z,41.90
2018-08-07T23:15:32.346Z,43.10
2018-08-07T23:18:35.468Z,42.80
2018-08-07T23:21:38.569Z,43.50
2018-08-07T23:24:41.768Z,42.80
2018-08-07T23:27:44.893Z,43.80
2018-08-07T23:30:47.986Z,43.70
2018-08-07T23:33:51.137Z,44.10
2018-08-07T23:36:54.199Z,43.90
2018-08-07T23:39:57.360Z,44.50
2018-08-07T23:43:00.457Z,44.40
2018-08-07T23:46:03.585Z,44.50
2018-08-07T23:49:06.733Z,44.30
2018-08-07T23:52:09.826Z,45.30
2018-08-07T23:55:12.908Z,45.10
2018-08-07T23:58:15.988Z,43.90
